Conesville, Ohio
Current Conditions -  °F | °C
As of 1:53 PM on Tuesday 21 Oct 2014 (Local Time) from KZZV Reporting Station
Overcast Overcast  
Wind Chill: 51°   Ceiling: 1900
Heat Index: 51°   Visibility: 10mi
Dew Point: 45°   Wind: 9mph
Humidity: 80%   Direction: 320°NW
Pressure: 29.95"   Gusts: NA
Location:  40.18°N, 81.89°W
Report Text: KZZV 211753Z AUTO 32008KT 10SM BKN019 BKN025 OVC034 11/07 A2995 RMK AO2 SLP141 60002 T01060072 10111 20089 50006
Loading
Personal Weather Stations






























Interactive Weather Map
Tropical Storm Tracking
New forecast layout! Learn more

10-Day Weather Forecast

Advertisements
Track Severe Weather on mobile